Blackfords, United Kingdom
Current Conditions -  °F | °C
As of 1:20 PM on Thursday 23 Oct 2014 (Local Time) from EGBB Reporting Station
Broken Clouds Broken Clouds  
Wind Chill: 61°   Ceiling: 1600
Heat Index: 61°   Visibility: 6mi
Dew Point: 54°   Wind: 8mph
Humidity: 77%   Direction: 220°SW
Pressure: 30"   Gusts: NA
Location:  52.69°N, 2.03°W
Report Text: EGBB 231220Z 22007KT 160V320 9999 BKN016 BKN048 16/12 Q1016
Loading
Personal Weather Stations






























Interactive Weather Map
Tropical Storm Tracking
New forecast layout! Learn more

10-Day Weather Forecast

Advertisements
Track Severe Weather on mobile